sensor_id;sensor_type;location;lat;lon;timestamp;temperature;humidity
20650;DHT22;10484;48.736;9.332;2023-04-03T00:02:07;6.70;1.00
20650;DHT22;10484;48.736;9.332;2023-04-03T00:04:33;6.60;1.00
20650;DHT22;10484;48.736;9.332;2023-04-03T00:06:58;6.60;1.00
20650;DHT22;10484;48.736;9.332;2023-04-03T00:09:24;6.60;1.00
20650;DHT22;10484;48.736;9.332;2023-04-03T00:11:49;6.50;1.00
20650;DHT22;10484;48.736;9.332;2023-04-03T00:14:15;6.50;1.00
20650;DHT22;10484;48.736;9.332;2023-04-03T00:16:40;6.50;1.00
20650;DHT22;10484;48.736;9.332;2023-04-03T00:19:06;6.50;1.00
20650;DHT22;10484;48.736;9.332;2023-04-03T00:21:32;6.50;1.00
20650;DHT22;10484;48.736;9.332;2023-04-03T00:23:58;6.50;1.00
20650;DHT22;10484;48.736;9.332;2023-04-03T00:26:23;6.40;1.00
20650;DHT22;10484;48.736;9.332;2023-04-03T00:28:49;6.40;1.00
20650;DHT22;10484;48.736;9.332;2023-04-03T00:31:15;6.40;1.00
20650;DHT22;10484;48.736;9.332;2023-04-03T00:33:41;6.40;1.00
20650;DHT22;10484;48.736;9.332;2023-04-03T00:36:09;6.40;1.00
20650;DHT22;10484;48.736;9.332;2023-04-03T00:38:35;6.30;1.00
20650;DHT22;10484;48.736;9.332;2023-04-03T00:41:02;6.30;1.00
20650;DHT22;10484;48.736;9.332;2023-04-03T00:43:27;6.30;1.00
20650;DHT22;10484;48.736;9.332;2023-04-03T00:45:55;6.30;1.00
20650;DHT22;10484;48.736;9.332;2023-04-03T00:48:40;6.30;1.00
20650;DHT22;10484;48.736;9.332;2023-04-03T00:51:19;6.20;1.00
20650;DHT22;10484;48.736;9.332;2023-04-03T00:53:51;6.20;1.00
20650;DHT22;10484;48.736;9.332;2023-04-03T00:56:21;6.20;1.00
20650;DHT22;10484;48.736;9.332;2023-04-03T00:58:52;6.20;1.00
20650;DHT22;10484;48.736;9.332;2023-04-03T01:01:22;6.20;1.00
20650;DHT22;10484;48.736;9.332;2023-04-03T01:03:49;6.10;1.00
20650;DHT22;10484;48.736;9.332;2023-04-03T01:06:17;6.10;1.00
20650;DHT22;10484;48.736;9.332;2023-04-03T01:08:45;6.10;1.00
20650;DHT22;10484;48.736;9.332;2023-04-03T01:11:12;6.10;1.00
20650;DHT22;10484;48.736;9.332;2023-04-03T01:13:37;6.10;1.00
20650;DHT22;10484;48.736;9.332;2023-04-03T01:16:05;6.10;1.00
20650;DHT22;10484;48.736;9.332;2023-04-03T01:18:32;6.10;1.00
20650;DHT22;10484;48.736;9.332;2023-04-03T01:24:32;6.00;1.00
20650;DHT22;10484;48.736;9.332;2023-04-03T01:26:59;6.00;1.00
20650;DHT22;10484;48.736;9.332;2023-04-03T01:29:26;6.00;1.00
20650;DHT22;10484;48.736;9.332;2023-04-03T01:31:54;5.90;1.00
20650;DHT22;10484;48.736;9.332;2023-04-03T01:34:21;6.00;1.00
20650;DHT22;10484;48.736;9.332;2023-04-03T01:36:46;5.90;1.00
20650;DHT22;10484;48.736;9.332;2023-04-03T01:39:12;5.90;1.00
20650;DHT22;10484;48.736;9.332;2023-04-03T01:41:38;5.90;1.00
20650;DHT22;10484;48.736;9.332;2023-04-03T01:44:04;5.80;1.00
20650;DHT22;10484;48.736;9.332;2023-04-03T01:46:29;5.80;1.00
20650;DHT22;10484;48.736;9.332;2023-04-03T01:48:55;5.80;1.00
20650;DHT22;10484;48.736;9.332;2023-04-03T01:51:21;5.80;1.00
20650;DHT22;10484;48.736;9.332;2023-04-03T01:53:46;5.80;1.00
20650;DHT22;10484;48.736;9.332;2023-04-03T01:56:12;5.80;1.00
20650;DHT22;10484;48.736;9.332;2023-04-03T01:58:37;5.80;1.00
20650;DHT22;10484;48.736;9.332;2023-04-03T02:01:03;5.80;1.00
20650;DHT22;10484;48.736;9.332;2023-04-03T02:03:29;5.80;1.00
20650;DHT22;10484;48.736;9.332;2023-04-03T02:05:55;5.70;1.00
20650;DHT22;10484;48.736;9.332;2023-04-03T02:08:20;5.70;1.00
20650;DHT22;10484;48.736;9.332;2023-04-03T02:10:50;5.70;1.00
20650;DHT22;10484;48.736;9.332;2023-04-03T02:13:17;5.70;1.00
20650;DHT22;10484;48.736;9.332;2023-04-03T02:15:43;5.70;1.00
20650;DHT22;10484;48.736;9.332;2023-04-03T02:18:09;5.60;1.00
20650;DHT22;10484;48.736;9.332;2023-04-03T02:20:35;5.60;1.00
20650;DHT22;10484;48.736;9.332;2023-04-03T02:23:00;5.60;1.00
20650;DHT22;10484;48.736;9.332;2023-04-03T02:25:26;5.60;1.00
20650;DHT22;10484;48.736;9.332;2023-04-03T02:27:52;5.60;1.00
20650;DHT22;10484;48.736;9.332;2023-04-03T02:30:18;5.60;1.00
20650;DHT22;10484;48.736;9.332;2023-04-03T02:32:43;5.60;1.00
20650;DHT22;10484;48.736;9.332;2023-04-03T02:35:10;5.60;1.00
20650;DHT22;10484;48.736;9.332;2023-04-03T02:37:36;5.60;1.00
20650;DHT22;10484;48.736;9.332;2023-04-03T02:40:02;5.60;1.00
20650;DHT22;10484;48.736;9.332;2023-04-03T02:42:28;5.50;1.00
20650;DHT22;10484;48.736;9.332;2023-04-03T02:44:53;5.50;1.00
20650;DHT22;10484;48.736;9.332;2023-04-03T02:47:19;5.50;1.00
20650;DHT22;10484;48.736;9.332;2023-04-03T02:49:45;5.50;1.00
20650;DHT22;10484;48.736;9.332;2023-04-03T02:52:12;5.50;1.00
20650;DHT22;10484;48.736;9.332;2023-04-03T02:54:37;5.50;1.00
20650;DHT22;10484;48.736;9.332;2023-04-03T02:57:03;5.40;1.00
20650;DHT22;10484;48.736;9.332;2023-04-03T02:59:29;5.40;1.00
20650;DHT22;10484;48.736;9.332;2023-04-03T03:01:55;5.40;1.00
20650;DHT22;10484;48.736;9.332;2023-04-03T03:04:21;5.40;1.00
20650;DHT22;10484;48.736;9.332;2023-04-03T03:06:46;5.30;1.00
20650;DHT22;10484;48.736;9.332;2023-04-03T03:09:13;5.30;1.00
20650;DHT22;10484;48.736;9.332;2023-04-03T03:11:39;5.30;1.00
20650;DHT22;10484;48.736;9.332;2023-04-03T03:14:04;5.30;1.00
20650;DHT22;10484;48.736;9.332;2023-04-03T03:16:30;5.30;1.00
20650;DHT22;10484;48.736;9.332;2023-04-03T03:18:56;5.30;1.00
20650;DHT22;10484;48.736;9.332;2023-04-03T03:21:21;5.30;1.00
20650;DHT22;10484;48.736;9.332;2023-04-03T03:23:47;5.20;1.00
20650;DHT22;10484;48.736;9.332;2023-04-03T03:26:13;5.20;1.00
20650;DHT22;10484;48.736;9.332;2023-04-03T03:28:39;5.20;1.00
20650;DHT22;10484;48.736;9.332;2023-04-03T03:31:06;5.20;1.00
20650;DHT22;10484;48.736;9.332;2023-04-03T03:33:32;5.20;1.00
20650;DHT22;10484;48.736;9.332;2023-04-03T03:35:58;5.20;1.00
20650;DHT22;10484;48.736;9.332;2023-04-03T03:38:23;5.20;1.00
20650;DHT22;10484;48.736;9.332;2023-04-03T03:40:50;5.20;1.00
20650;DHT22;10484;48.736;9.332;2023-04-03T03:43:16;5.20;1.00
20650;DHT22;10484;48.736;9.332;2023-04-03T03:45:43;5.20;1.00
20650;DHT22;10484;48.736;9.332;2023-04-03T03:48:09;5.20;1.00
20650;DHT22;10484;48.736;9.332;2023-04-03T03:50:35;5.20;1.00
20650;DHT22;10484;48.736;9.332;2023-04-03T03:53:00;5.20;1.00
20650;DHT22;10484;48.736;9.332;2023-04-03T03:55:26;5.20;1.00
20650;DHT22;10484;48.736;9.332;2023-04-03T03:57:52;5.20;1.00
20650;DHT22;10484;48.736;9.332;2023-04-03T04:00:18;5.20;1.00
20650;DHT22;10484;48.736;9.332;2023-04-03T04:02:43;5.20;1.00
20650;DHT22;10484;48.736;9.332;2023-04-03T04:05:09;5.20;1.00
20650;DHT22;10484;48.736;9.332;2023-04-03T04:07:35;5.20;1.00
20650;DHT22;10484;48.736;9.332;2023-04-03T04:10:01;5.20;1.00
20650;DHT22;10484;48.736;9.332;2023-04-03T04:12:26;5.20;1.00
20650;DHT22;10484;48.736;9.332;2023-04-03T04:14:52;5.20;1.00
20650;DHT22;10484;48.736;9.332;2023-04-03T04:17:17;5.20;1.00
20650;DHT22;10484;48.736;9.332;2023-04-03T04:19:43;5.20;1.00
20650;DHT22;10484;48.736;9.332;2023-04-03T04:22:08;5.20;1.00
20650;DHT22;10484;48.736;9.332;2023-04-03T04:24:34;5.20;1.00
20650;DHT22;10484;48.736;9.332;2023-04-03T04:27:00;5.20;1.00
20650;DHT22;10484;48.736;9.332;2023-04-03T04:29:25;5.20;1.00
20650;DHT22;10484;48.736;9.332;2023-04-03T04:31:51;5.20;1.00
20650;DHT22;10484;48.736;9.332;2023-04-03T04:34:16;5.10;1.00
20650;DHT22;10484;48.736;9.332;2023-04-03T04:36:42;5.10;1.00
20650;DHT22;10484;48.736;9.332;2023-04-03T04:39:07;5.10;1.00
20650;DHT22;10484;48.736;9.332;2023-04-03T04:41:34;5.20;1.00
20650;DHT22;10484;48.736;9.332;2023-04-03T04:44:00;5.10;1.00
20650;DHT22;10484;48.736;9.332;2023-04-03T04:46:25;5.20;1.00
20650;DHT22;10484;48.736;9.332;2023-04-03T04:48:51;5.10;1.00
20650;DHT22;10484;48.736;9.332;2023-04-03T04:51:16;5.10;1.00
20650;DHT22;10484;48.736;9.332;2023-04-03T04:53:42;5.10;1.00
20650;DHT22;10484;48.736;9.332;2023-04-03T04:56:08;5.10;1.00
20650;DHT22;10484;48.736;9.332;2023-04-03T04:58:34;5.10;1.00
20650;DHT22;10484;48.736;9.332;2023-04-03T05:01:05;5.10;1.00
20650;DHT22;10484;48.736;9.332;2023-04-03T05:03:31;5.10;1.00
20650;DHT22;10484;48.736;9.332;2023-04-03T05:05:57;5.10;1.00
20650;DHT22;10484;48.736;9.332;2023-04-03T05:08:23;5.20;1.00
20650;DHT22;10484;48.736;9.332;2023-04-03T05:10:49;5.10;1.00
20650;DHT22;10484;48.736;9.332;2023-04-03T05:13:15;5.10;1.00
20650;DHT22;10484;48.736;9.332;2023-04-03T05:15:40;5.10;1.00
20650;DHT22;10484;48.736;9.332;2023-04-03T05:18:06;5.10;1.00
20650;DHT22;10484;48.736;9.332;2023-04-03T05:20:32;5.10;1.00
20650;DHT22;10484;48.736;9.332;2023-04-03T05:22:58;5.10;1.00
20650;DHT22;10484;48.736;9.332;2023-04-03T05:25:24;5.10;1.00
20650;DHT22;10484;48.736;9.332;2023-04-03T05:27:50;5.00;1.00
20650;DHT22;10484;48.736;9.332;2023-04-03T05:30:16;5.00;1.00
20650;DHT22;10484;48.736;9.332;2023-04-03T05:32:41;5.00;1.00
20650;DHT22;10484;48.736;9.332;2023-04-03T05:35:08;5.00;1.00
20650;DHT22;10484;48.736;9.332;2023-04-03T05:37:34;5.00;1.00
20650;DHT22;10484;48.736;9.332;2023-04-03T05:40:01;5.00;1.00
20650;DHT22;10484;48.736;9.332;2023-04-03T05:42:26;5.00;1.00
20650;DHT22;10484;48.736;9.332;2023-04-03T05:44:52;5.00;1.00
20650;DHT22;10484;48.736;9.332;2023-04-03T05:47:18;5.00;1.00
20650;DHT22;10484;48.736;9.332;2023-04-03T05:49:45;5.00;1.00
20650;DHT22;10484;48.736;9.332;2023-04-03T05:52:25;4.90;1.00
20650;DHT22;10484;48.736;9.332;2023-04-03T05:54:51;5.00;1.00
20650;DHT22;10484;48.736;9.332;2023-04-03T05:57:17;4.90;1.00
20650;DHT22;10484;48.736;9.332;2023-04-03T05:59:44;4.90;1.00
20650;DHT22;10484;48.736;9.332;2023-04-03T06:02:14;4.90;1.00
20650;DHT22;10484;48.736;9.332;2023-04-03T06:04:39;4.80;1.00
20650;DHT22;10484;48.736;9.332;2023-04-03T06:07:05;4.90;1.00
20650;DHT22;10484;48.736;9.332;2023-04-03T06:09:32;4.90;1.00
20650;DHT22;10484;48.736;9.332;2023-04-03T06:11:58;4.90;1.00
20650;DHT22;10484;48.736;9.332;2023-04-03T06:14:25;5.00;1.00
20650;DHT22;10484;48.736;9.332;2023-04-03T06:16:51;4.90;1.00
20650;DHT22;10484;48.736;9.332;2023-04-03T06:19:17;4.90;1.00
20650;DHT22;10484;48.736;9.332;2023-04-03T06:21:43;4.90;1.00
20650;DHT22;10484;48.736;9.332;2023-04-03T06:24:09;4.80;1.00
20650;DHT22;10484;48.736;9.332;2023-04-03T06:26:37;4.80;1.00
20650;DHT22;10484;48.736;9.332;2023-04-03T06:29:03;4.80;1.00
20650;DHT22;10484;48.736;9.332;2023-04-03T06:31:28;4.80;1.00
20650;DHT22;10484;48.736;9.332;2023-04-03T06:33:54;4.80;1.00
20650;DHT22;10484;48.736;9.332;2023-04-03T06:36:21;4.80;1.00
20650;DHT22;10484;48.736;9.332;2023-04-03T06:38:47;4.80;1.00
20650;DHT22;10484;48.736;9.332;2023-04-03T06:41:13;4.80;1.00
20650;DHT22;10484;48.736;9.332;2023-04-03T06:43:40;4.80;1.00
20650;DHT22;10484;48.736;9.332;2023-04-03T06:46:05;4.80;1.00
20650;DHT22;10484;48.736;9.332;2023-04-03T06:48:31;4.80;1.00
20650;DHT22;10484;48.736;9.332;2023-04-03T06:50:57;4.80;1.00
20650;DHT22;10484;48.736;9.332;2023-04-03T06:53:23;4.80;1.00
20650;DHT22;10484;48.736;9.332;2023-04-03T06:55:48;4.70;1.00
20650;DHT22;10484;48.736;9.332;2023-04-03T06:58:14;4.80;1.00
20650;DHT22;10484;48.736;9.332;2023-04-03T07:00:41;4.80;1.00
20650;DHT22;10484;48.736;9.332;2023-04-03T07:03:06;4.80;1.00
20650;DHT22;10484;48.736;9.332;2023-04-03T07:05:32;4.90;1.00
20650;DHT22;10484;48.736;9.332;2023-04-03T07:07:58;4.90;1.00
20650;DHT22;10484;48.736;9.332;2023-04-03T07:10:23;4.90;1.00
20650;DHT22;10484;48.736;9.332;2023-04-03T07:12:49;4.90;1.00
20650;DHT22;10484;48.736;9.332;2023-04-03T07:15:15;4.90;1.00
20650;DHT22;10484;48.736;9.332;2023-04-03T07:17:41;4.90;1.00
20650;DHT22;10484;48.736;9.332;2023-04-03T07:20:07;5.00;1.00
20650;DHT22;10484;48.736;9.332;2023-04-03T07:22:33;5.00;1.00
20650;DHT22;10484;48.736;9.332;2023-04-03T07:24:59;5.00;1.00
20650;DHT22;10484;48.736;9.332;2023-04-03T07:27:25;5.10;1.00
20650;DHT22;10484;48.736;9.332;2023-04-03T07:29:51;5.00;1.00
20650;DHT22;10484;48.736;9.332;2023-04-03T07:32:17;5.10;1.00
20650;DHT22;10484;48.736;9.332;2023-04-03T07:34:43;5.10;1.00
20650;DHT22;10484;48.736;9.332;2023-04-03T07:37:09;5.10;1.00
20650;DHT22;10484;48.736;9.332;2023-04-03T07:39:35;5.10;1.00
20650;DHT22;10484;48.736;9.332;2023-04-03T07:42:01;5.10;1.00
20650;DHT22;10484;48.736;9.332;2023-04-03T07:44:27;5.10;1.00
20650;DHT22;10484;48.736;9.332;2023-04-03T07:46:53;5.10;1.00
20650;DHT22;10484;48.736;9.332;2023-04-03T07:49:18;5.10;1.00
20650;DHT22;10484;48.736;9.332;2023-04-03T07:51:45;5.10;1.00
20650;DHT22;10484;48.736;9.332;2023-04-03T07:54:10;5.10;1.00
20650;DHT22;10484;48.736;9.332;2023-04-03T07:56:36;5.10;1.00
20650;DHT22;10484;48.736;9.332;2023-04-03T07:59:01;5.20;1.00
20650;DHT22;10484;48.736;9.332;2023-04-03T08:01:27;5.20;1.00
20650;DHT22;10484;48.736;9.332;2023-04-03T08:03:53;5.20;1.00
20650;DHT22;10484;48.736;9.332;2023-04-03T08:06:18;5.30;1.00
20650;DHT22;10484;48.736;9.332;2023-04-03T08:08:44;5.40;1.00
20650;DHT22;10484;48.736;9.332;2023-04-03T08:11:10;5.40;1.00
20650;DHT22;10484;48.736;9.332;2023-04-03T08:13:36;5.40;1.00
20650;DHT22;10484;48.736;9.332;2023-04-03T08:16:12;5.40;1.00
20650;DHT22;10484;48.736;9.332;2023-04-03T08:18:38;5.50;1.00
20650;DHT22;10484;48.736;9.332;2023-04-03T08:21:13;5.50;1.00
20650;DHT22;10484;48.736;9.332;2023-04-03T08:23:40;5.50;1.00
20650;DHT22;10484;48.736;9.332;2023-04-03T08:26:15;5.50;1.00
20650;DHT22;10484;48.736;9.332;2023-04-03T08:28:41;5.60;1.00
20650;DHT22;10484;48.736;9.332;2023-04-03T08:31:10;5.60;1.00
20650;DHT22;10484;48.736;9.332;2023-04-03T08:33:37;5.70;1.00
20650;DHT22;10484;48.736;9.332;2023-04-03T08:36:04;5.70;1.00
20650;DHT22;10484;48.736;9.332;2023-04-03T08:38:30;5.70;1.00
20650;DHT22;10484;48.736;9.332;2023-04-03T08:41:02;5.80;1.00
20650;DHT22;10484;48.736;9.332;2023-04-03T08:43:33;5.80;1.00
20650;DHT22;10484;48.736;9.332;2023-04-03T08:46:05;5.90;1.00
20650;DHT22;10484;48.736;9.332;2023-04-03T08:48:34;6.00;1.00
20650;DHT22;10484;48.736;9.332;2023-04-03T08:51:04;6.10;1.00
20650;DHT22;10484;48.736;9.332;2023-04-03T08:53:40;6.20;1.00
20650;DHT22;10484;48.736;9.332;2023-04-03T08:56:09;6.30;1.00
20650;DHT22;10484;48.736;9.332;2023-04-03T08:58:50;6.40;1.00
20650;DHT22;10484;48.736;9.332;2023-04-03T09:01:30;6.30;1.00
20650;DHT22;10484;48.736;9.332;2023-04-03T09:04:01;6.40;1.00
20650;DHT22;10484;48.736;9.332;2023-04-03T09:06:31;6.40;1.00
20650;DHT22;10484;48.736;9.332;2023-04-03T09:14:30;6.40;1.00
20650;DHT22;10484;48.736;9.332;2023-04-03T09:17:03;6.50;1.00
20650;DHT22;10484;48.736;9.332;2023-04-03T09:19:41;6.60;1.00
20650;DHT22;10484;48.736;9.332;2023-04-03T09:22:19;6.60;1.00
20650;DHT22;10484;48.736;9.332;2023-04-03T09:24:49;6.60;1.00
20650;DHT22;10484;48.736;9.332;2023-04-03T09:27:15;6.60;1.00
20650;DHT22;10484;48.736;9.332;2023-04-03T09:29:44;6.70;1.00
20650;DHT22;10484;48.736;9.332;2023-04-03T09:34:53;6.80;1.00
20650;DHT22;10484;48.736;9.332;2023-04-03T09:40:03;6.80;1.00
20650;DHT22;10484;48.736;9.332;2023-04-03T09:42:30;6.70;1.00
20650;DHT22;10484;48.736;9.332;2023-04-03T09:45:02;6.70;1.00
20650;DHT22;10484;48.736;9.332;2023-04-03T09:47:33;6.70;1.00
20650;DHT22;10484;48.736;9.332;2023-04-03T09:52:42;6.80;1.00
20650;DHT22;10484;48.736;9.332;2023-04-03T09:55:18;6.70;1.00
20650;DHT22;10484;48.736;9.332;2023-04-03T09:57:45;6.80;1.00
20650;DHT22;10484;48.736;9.332;2023-04-03T10:00:35;6.80;1.00
20650;DHT22;10484;48.736;9.332;2023-04-03T10:03:02;6.90;1.00
20650;DHT22;10484;48.736;9.332;2023-04-03T10:05:34;6.90;1.00
20650;DHT22;10484;48.736;9.332;2023-04-03T10:10:33;6.90;1.00
20650;DHT22;10484;48.736;9.332;2023-04-03T10:13:19;7.00;1.00
20650;DHT22;10484;48.736;9.332;2023-04-03T10:16:06;7.00;1.00
20650;DHT22;10484;48.736;9.332;2023-04-03T10:24:21;7.00;1.00
20650;DHT22;10484;48.736;9.332;2023-04-03T10:27:37;7.00;1.00
20650;DHT22;10484;48.736;9.332;2023-04-03T10:33:17;7.00;1.00
20650;DHT22;10484;48.736;9.332;2023-04-03T10:35:53;7.00;1.00
20650;DHT22;10484;48.736;9.332;2023-04-03T10:43:52;7.00;1.00
20650;DHT22;10484;48.736;9.332;2023-04-03T10:46:35;7.10;1.00
20650;DHT22;10484;48.736;9.332;2023-04-03T10:49:21;7.00;1.00
20650;DHT22;10484;48.736;9.332;2023-04-03T10:51:55;7.00;1.00
20650;DHT22;10484;48.736;9.332;2023-04-03T10:57:01;7.10;1.00
20650;DHT22;10484;48.736;9.332;2023-04-03T10:59:34;7.10;1.00
20650;DHT22;10484;48.736;9.332;2023-04-03T11:02:25;7.10;1.00
20650;DHT22;10484;48.736;9.332;2023-04-03T11:05:05;7.00;1.00
20650;DHT22;10484;48.736;9.332;2023-04-03T11:07:38;7.00;1.00
20650;DHT22;10484;48.736;9.332;2023-04-03T11:10:35;7.00;1.00
20650;DHT22;10484;48.736;9.332;2023-04-03T11:13:24;6.90;1.00
20650;DHT22;10484;48.736;9.332;2023-04-03T11:15:53;6.90;1.00
20650;DHT22;10484;48.736;9.332;2023-04-03T11:18:25;6.90;1.00
20650;DHT22;10484;48.736;9.332;2023-04-03T11:21:14;7.00;1.00
20650;DHT22;10484;48.736;9.332;2023-04-03T11:23:44;7.00;1.00
20650;DHT22;10484;48.736;9.332;2023-04-03T11:26:19;7.10;1.00
20650;DHT22;10484;48.736;9.332;2023-04-03T11:28:46;7.10;1.00
20650;DHT22;10484;48.736;9.332;2023-04-03T11:36:49;7.30;1.00
20650;DHT22;10484;48.736;9.332;2023-04-03T11:39:25;7.30;1.00
20650;DHT22;10484;48.736;9.332;2023-04-03T11:41:52;7.20;1.00
20650;DHT22;10484;48.736;9.332;2023-04-03T11:47:00;7.30;1.00
20650;DHT22;10484;48.736;9.332;2023-04-03T11:50:01;7.30;1.00
20650;DHT22;10484;48.736;9.332;2023-04-03T12:00:47;7.10;1.00
20650;DHT22;10484;48.736;9.332;2023-04-03T12:08:29;7.20;1.00
20650;DHT22;10484;48.736;9.332;2023-04-03T12:14:03;7.30;1.00
20650;DHT22;10484;48.736;9.332;2023-04-03T12:19:00;7.40;1.00
20650;DHT22;10484;48.736;9.332;2023-04-03T12:43:14;7.80;1.00
20650;DHT22;10484;48.736;9.332;2023-04-03T12:45:44;7.70;1.00
20650;DHT22;10484;48.736;9.332;2023-04-03T12:48:17;7.70;1.00
20650;DHT22;10484;48.736;9.332;2023-04-03T12:50:45;7.70;1.00
20650;DHT22;10484;48.736;9.332;2023-04-03T12:53:15;7.70;1.00
20650;DHT22;10484;48.736;9.332;2023-04-03T12:55:42;7.70;1.00
20650;DHT22;10484;48.736;9.332;2023-04-03T12:58:27;7.70;1.00
20650;DHT22;10484;48.736;9.332;2023-04-03T13:01:00;7.80;1.00
20650;DHT22;10484;48.736;9.332;2023-04-03T13:03:27;7.90;1.00
20650;DHT22;10484;48.736;9.332;2023-04-03T13:06:02;8.00;1.00
20650;DHT22;10484;48.736;9.332;2023-04-03T13:08:29;8.00;1.00
20650;DHT22;10484;48.736;9.332;2023-04-03T13:11:22;8.10;1.00
20650;DHT22;10484;48.736;9.332;2023-04-03T13:14:04;8.10;1.00
20650;DHT22;10484;48.736;9.332;2023-04-03T13:16:32;8.10;1.00
20650;DHT22;10484;48.736;9.332;2023-04-03T13:18:59;8.10;1.00
20650;DHT22;10484;48.736;9.332;2023-04-03T13:21:27;7.90;1.00
20650;DHT22;10484;48.736;9.332;2023-04-03T13:23:57;7.80;1.00
20650;DHT22;10484;48.736;9.332;2023-04-03T13:26:26;7.90;1.00
20650;DHT22;10484;48.736;9.332;2023-04-03T13:28:54;7.90;1.00
20650;DHT22;10484;48.736;9.332;2023-04-03T13:31:33;7.90;1.00
20650;DHT22;10484;48.736;9.332;2023-04-03T13:34:13;7.90;1.00
20650;DHT22;10484;48.736;9.332;2023-04-03T13:36:58;7.90;1.00
20650;DHT22;10484;48.736;9.332;2023-04-03T13:39:29;7.90;1.00
20650;DHT22;10484;48.736;9.332;2023-04-03T13:42:00;7.90;1.00
20650;DHT22;10484;48.736;9.332;2023-04-03T13:44:33;7.90;1.00
20650;DHT22;10484;48.736;9.332;2023-04-03T13:49:35;8.00;1.00
20650;DHT22;10484;48.736;9.332;2023-04-03T13:52:26;8.10;1.00
20650;DHT22;10484;48.736;9.332;2023-04-03T13:54:55;8.10;1.00
20650;DHT22;10484;48.736;9.332;2023-04-03T13:57:22;8.10;1.00
20650;DHT22;10484;48.736;9.332;2023-04-03T13:59:48;8.20;1.00
20650;DHT22;10484;48.736;9.332;2023-04-03T14:02:19;8.20;1.00
20650;DHT22;10484;48.736;9.332;2023-04-03T14:04:50;8.10;1.00
20650;DHT22;10484;48.736;9.332;2023-04-03T14:07:18;8.20;1.00
20650;DHT22;10484;48.736;9.332;2023-04-03T14:09:45;8.20;1.00
20650;DHT22;10484;48.736;9.332;2023-04-03T14:12:27;8.20;1.00
20650;DHT22;10484;48.736;9.332;2023-04-03T14:14:55;8.10;1.00
20650;DHT22;10484;48.736;9.332;2023-04-03T14:17:24;8.00;1.00
20650;DHT22;10484;48.736;9.332;2023-04-03T14:19:51;7.90;1.00
20650;DHT22;10484;48.736;9.332;2023-04-03T14:22:20;7.90;1.00
20650;DHT22;10484;48.736;9.332;2023-04-03T14:24:48;7.90;1.00
20650;DHT22;10484;48.736;9.332;2023-04-03T14:27:20;8.00;1.00
20650;DHT22;10484;48.736;9.332;2023-04-03T14:29:47;8.10;1.00
20650;DHT22;10484;48.736;9.332;2023-04-03T14:32:16;8.20;1.00
20650;DHT22;10484;48.736;9.332;2023-04-03T14:34:42;8.40;1.00
20650;DHT22;10484;48.736;9.332;2023-04-03T14:37:11;8.50;1.00
20650;DHT22;10484;48.736;9.332;2023-04-03T14:39:38;8.50;1.00
20650;DHT22;10484;48.736;9.332;2023-04-03T14:42:03;8.40;1.00
20650;DHT22;10484;48.736;9.332;2023-04-03T14:44:29;8.30;1.00
20650;DHT22;10484;48.736;9.332;2023-04-03T14:46:55;8.30;1.00
20650;DHT22;10484;48.736;9.332;2023-04-03T14:49:25;8.20;1.00
20650;DHT22;10484;48.736;9.332;2023-04-03T14:51:51;8.30;1.00
20650;DHT22;10484;48.736;9.332;2023-04-03T14:54:20;8.30;1.00
20650;DHT22;10484;48.736;9.332;2023-04-03T14:56:51;8.20;1.00
20650;DHT22;10484;48.736;9.332;2023-04-03T14:59:17;8.20;1.00
20650;DHT22;10484;48.736;9.332;2023-04-03T15:01:45;8.20;1.00
20650;DHT22;10484;48.736;9.332;2023-04-03T15:04:19;8.20;1.00
20650;DHT22;10484;48.736;9.332;2023-04-03T15:06:44;8.30;1.00
20650;DHT22;10484;48.736;9.332;2023-04-03T15:09:22;8.30;1.00
20650;DHT22;10484;48.736;9.332;2023-04-03T15:11:49;8.20;1.00
20650;DHT22;10484;48.736;9.332;2023-04-03T15:14:15;8.20;1.00
20650;DHT22;10484;48.736;9.332;2023-04-03T15:16:41;8.10;1.00
20650;DHT22;10484;48.736;9.332;2023-04-03T15:19:06;8.10;1.00
20650;DHT22;10484;48.736;9.332;2023-04-03T15:21:32;8.00;1.00
20650;DHT22;10484;48.736;9.332;2023-04-03T15:23:57;8.00;1.00
20650;DHT22;10484;48.736;9.332;2023-04-03T15:26:23;8.00;1.00
20650;DHT22;10484;48.736;9.332;2023-04-03T15:28:49;8.00;1.00
20650;DHT22;10484;48.736;9.332;2023-04-03T15:31:15;8.10;1.00
20650;DHT22;10484;48.736;9.332;2023-04-03T15:33:40;8.10;1.00
20650;DHT22;10484;48.736;9.332;2023-04-03T15:36:06;8.10;1.00
20650;DHT22;10484;48.736;9.332;2023-04-03T15:38:32;8.10;1.00
20650;DHT22;10484;48.736;9.332;2023-04-03T15:40:58;8.00;1.00
20650;DHT22;10484;48.736;9.332;2023-04-03T15:43:23;7.90;1.00
20650;DHT22;10484;48.736;9.332;2023-04-03T15:45:50;7.90;1.00
20650;DHT22;10484;48.736;9.332;2023-04-03T15:48:17;7.90;1.00
20650;DHT22;10484;48.736;9.332;2023-04-03T15:50:43;8.00;1.00
20650;DHT22;10484;48.736;9.332;2023-04-03T15:53:08;8.10;1.00
20650;DHT22;10484;48.736;9.332;2023-04-03T15:55:37;8.20;1.00
20650;DHT22;10484;48.736;9.332;2023-04-03T15:58:03;8.20;1.00
20650;DHT22;10484;48.736;9.332;2023-04-03T16:00:30;8.10;1.00
20650;DHT22;10484;48.736;9.332;2023-04-03T16:03:04;8.00;1.00
20650;DHT22;10484;48.736;9.332;2023-04-03T16:05:31;8.00;1.00
20650;DHT22;10484;48.736;9.332;2023-04-03T16:07:58;8.00;1.00
20650;DHT22;10484;48.736;9.332;2023-04-03T16:10:25;8.10;1.00
20650;DHT22;10484;48.736;9.332;2023-04-03T16:12:51;8.00;1.00
20650;DHT22;10484;48.736;9.332;2023-04-03T16:15:17;8.00;1.00
20650;DHT22;10484;48.736;9.332;2023-04-03T16:17:42;8.10;1.00
20650;DHT22;10484;48.736;9.332;2023-04-03T16:20:09;8.10;1.00
20650;DHT22;10484;48.736;9.332;2023-04-03T16:22:37;8.20;1.00
20650;DHT22;10484;48.736;9.332;2023-04-03T16:25:04;8.30;1.00
20650;DHT22;10484;48.736;9.332;2023-04-03T16:27:30;8.20;1.00
20650;DHT22;10484;48.736;9.332;2023-04-03T16:29:57;8.20;1.00
20650;DHT22;10484;48.736;9.332;2023-04-03T16:32:23;8.20;1.00
20650;DHT22;10484;48.736;9.332;2023-04-03T16:34:50;8.20;1.00
20650;DHT22;10484;48.736;9.332;2023-04-03T16:37:16;8.20;1.00
20650;DHT22;10484;48.736;9.332;2023-04-03T16:39:42;8.10;1.00
20650;DHT22;10484;48.736;9.332;2023-04-03T16:42:07;8.10;1.00
20650;DHT22;10484;48.736;9.332;2023-04-03T16:44:34;8.10;1.00
20650;DHT22;10484;48.736;9.332;2023-04-03T16:47:00;8.10;1.00
20650;DHT22;10484;48.736;9.332;2023-04-03T16:49:26;8.20;1.00
20650;DHT22;10484;48.736;9.332;2023-04-03T16:51:57;8.10;1.00
20650;DHT22;10484;48.736;9.332;2023-04-03T16:54:23;8.10;1.00
20650;DHT22;10484;48.736;9.332;2023-04-03T16:56:48;8.10;1.00
20650;DHT22;10484;48.736;9.332;2023-04-03T16:59:14;8.00;1.00
20650;DHT22;10484;48.736;9.332;2023-04-03T17:01:40;8.00;1.00
20650;DHT22;10484;48.736;9.332;2023-04-03T17:04:05;7.90;1.00
20650;DHT22;10484;48.736;9.332;2023-04-03T17:06:31;7.90;1.00
20650;DHT22;10484;48.736;9.332;2023-04-03T17:08:57;8.00;1.00
20650;DHT22;10484;48.736;9.332;2023-04-03T17:11:22;7.90;1.00
20650;DHT22;10484;48.736;9.332;2023-04-03T17:13:48;7.90;1.00
20650;DHT22;10484;48.736;9.332;2023-04-03T17:16:15;7.80;1.00
20650;DHT22;10484;48.736;9.332;2023-04-03T17:18:41;7.80;1.00
20650;DHT22;10484;48.736;9.332;2023-04-03T17:21:07;7.80;1.00
20650;DHT22;10484;48.736;9.332;2023-04-03T17:23:34;7.80;1.00
20650;DHT22;10484;48.736;9.332;2023-04-03T17:26:01;7.80;1.00
20650;DHT22;10484;48.736;9.332;2023-04-03T17:28:28;7.80;1.00
20650;DHT22;10484;48.736;9.332;2023-04-03T17:30:58;7.80;1.00
20650;DHT22;10484;48.736;9.332;2023-04-03T17:33:24;7.80;1.00
20650;DHT22;10484;48.736;9.332;2023-04-03T17:35:51;7.70;1.00
20650;DHT22;10484;48.736;9.332;2023-04-03T17:38:16;7.70;1.00